Viernes, 24 de Octubre del 2014

portal contactenos mapa del sitio buscar Revisar Correo Corporativo

Reporte METAR Consolidado

|| Reporte TAF Consolidado ||

Informe METAR emitido cada hora.

METAR

ESTACIÓN

AEROPUERTO

HORA UTC

DESCRIPCIÓN

SLGM

Guayaramerín

10-49S|65-20W

23:00

SLGM 242300Z 00000KT 7000 VCSH FEW008 BKN015 FEW020CB OVC070 23/23 Q1007 A2976 HR98 RETSRA CB/SH NE/W=

SLRI

Riberalta

11-00S|66-04W

23:00

SLRI 242300Z 00000KT 5000 -TSRA BKN015 FEW020CB OVC070 24/23 Q1008 A2978 HR94 CB TS ON STN N/NE/S=

SLCO

Cobija

11-02S|68-47W

22:00

SLCO 242200Z 34005KT 8000 VCSH FEW017 FEW020CB BKN070 OVC200 24/24 Q1007 A2976 980.5 HR97 CB/SH/SE/S/SW/W/NW RETS=

SLJO

San Joaquin

13-03S|64-39W

22:00

SLJO 242200Z 00000KT 8000 SCT007 OVC200 24/23 Q1010 A2985 HR95 FU RWY HUM OPR=

SLRA

San Ramón

13-15S|64-36W

22:00

SLRA 242200Z 00000KT 8000 FEW015 BKN070 OVC200 25/24 Q1007 A2974 HR95 FU RWY HUM OPR=

SLMG

San Magdalena

13-15S|64-03W

23:00

SLMG 242300Z 00000KT 9999 BKN070 OVC200 25/24 Q1009 A2979 HR93 RWY HUM OPR=

SLBU

Baures

13-39S|63-42W

22:00

SLBU 242200Z 36004KT 9999 SCT020 OVC070 25/23 Q1007 A2976 HR86 RWY NML=

SLSA

Santa Ana de Yacuma

13-45S|65-26W

23:00

SLSA 242300Z 00000KT 7000 SCT080 BKN200 25/23 Q1007 A2975 HR84 FU=

SLSR

Santa Rosa

14-04S|66-47W

22:00

SLSR 242200Z 00000KT 8000 BKN015 OVC200 26/25 Q1006 A2973 HR95 FU RWY OPR C206=

SLRY

Reyes

14-18S|67-21W

22:00

SLRY 242200Z 00000KT 9999 FEW016 SCT080 BKN200 26/24 Q1009 A2981 HR86 RWY WET OPR 1 000M C206=

SLRQ

Rurrenabaque

14-25S|67-29W

22:00

SLRQ 242200Z 32004KT 9999 SCT016 OVC200 27/25 Q1008 A2978 HR89=

SLAP

Apolo

14-44S|68-24W

17:00

SLAPO 121700Z NIL=

SLTR

Trinidad

14-49S|64-54W

23:00

SLTR 242300Z 00000KT 8000 NSC 25/24 Q1008 A2978 990.1 HR90 FU AC/CI NOSIG=

SLSB

San Borja

14-51S|66-44W

23:00

SLSB 242300Z 00000KT 9999 SCT027 OVC200 27/24 Q1009 A2980 FU HR87 RWY NML=

SLSM

San Ignacio de Moxos

14-57S|65-38W

22:00

SLSM 242200Z 00000KT 8000 VCSH BKN015 FEW023CB OVC070 23/23 Q1006 A2973 HR98 RETSRA CB/SH N/NW RWY WET INOP=

SLAS

Ascención de Guarayos

15-55S|63-09W

23:00

SLAS 242300Z 00000KT 9999 FEW020 OVC200 27/23 Q1010 A2983 HR79 RWY NML=

SLCP

Concepción

16-08S|62-01W

22:00

SLCP 242200Z 00000KT 9999 NSC 26/22 Q1012 A2988 HR78 FU CI RWY NML=

SLLP

Internaciónal El Alto

16-08S|68-10W

01:00

SLLP 250100Z 08010KT 9999 FEW017CB 09/02 Q1035 A3057 626.3 CB/LT N/NE HR61 NOSIG=

SLJV

San Javier

16-16S|62-28W

22:00

SLJV 242200Z 00000KT 9999 FEW020 BKN200 27/22 Q1009 A2980 HR75 RWY NML=

SLTI

San Matías

16-20S|58-24W

22:00

SLTI 242200Z 36010KT 9999 SCT017 OVC070 26/23 Q1015 A2997 HR85 RWY NML=

SLSI

San Ignacio de Velasco

16-23S|60-57W

23:00

SLSI 242300Z 00000KT 9999 SCT070 27/24 Q1011 A2985 HR74 RWY NML =

SLCB

Cochabamba

17-25S|66-10W

01:00

SLCB 250100Z 16012KT 8000 -RA SCT025 FEW027CB BKN070 18/09 Q1026 A3031 752.4 HR56 CB ON STN/W/NW NOSIG=

SLCN

Charaña

17-35S|69-25W

-

Mensaje no Recibido

SLVR

Internaciónal Viru Viru

17-38S|63-08W

01:00

SLVR 250100Z 00000KT 9999 FEW020 BKN200 25/22 Q1012 A2989 HR86 NOSIG=

SLET

El Trompillo

17-48S|63-10W

23:00

SLET 242300Z VRB02KT 9999 FEW020 BKN200 27/22 Q1009 A2981 HR72 NOSIG=

SLJE

San José de Chiquitos

17-49S|60-44W

22:00

SLJE 242200Z 03004KT 9999 FEW017 29/21 Q1011 A2985 HR62 RWY NML =

SLOR

Oruro

17-57S|67-04W

22:00

SLOR 242200Z 19009KT 9999 FEW015 17/M03 Q1032 A3049 654.2 HR24=

SLRB

Roboré

18-19S|59-45W

23:00

SLRB 242300Z 00000KT 9999 FEW020 27/23 Q1012 A2988 HR78 RWY NML =

SLVG

Valle Grande

18-28S|64-05W

21:00

SLVG 242100Z 14005KT 9999 SCT027 FEW030CB BKN200 20/12 Q1023 A3021 HR59 CB/SW RWY NML=

SLPS

Puerto Suárez

18-58S|57-49W

23:00

SLPS 242300Z 00000KT 9999 SCT070 26/24 Q1010 A2983 HR88 FU=

SLSU

Sucre

19-00S|65-17W

23:00

SLSU 242300Z 08007KT 9999 BKN020 FEW030CB 15/07 Q1029 A3040 HR58 CB SW=

SLPO

Potosí

19-32S|65-43W

21:00

SLPO 242100Z 06014KT 9999 SCT020 13/01 Q1034 A3053 HR50=

SLAG

Monteagudo

19-49S|63-58W

21:00

SLAG 242100Z 18004KT 9999 BKN070 25/18 Q1017 A3003 HR64 FU RWY CLSD=

SLCA

Camiri

20-00S|63-31W

23:00

SLCA 242300Z 00000KT 9999 TS SCT033 FEW040CB BKN070 21/20 Q1016 A3000 HR93 CB/TS SE RWY WET INOP=

SLUY

Uyuni

20-27S|62-52W

20:00

SLUY 242000Z 01008KT 9999 FEW015 18/M00 Q1030 A3042 655.5 CI HR25=

SLVM

Villamontes

21-15S|63-24W

21:00

SLVM 242100Z 18010KT 9999 SCT025 FEW027TCU 35/18 Q1008 A2977 HR36 TCU NE/SE=

SLTJ

Tarija

21-33S|64-42W

01:00

SLTJ 250100Z 00000KT 9999 BKN033 17/15 Q1022 A3019 HR88=

SLYA

Yacuiba

21-57S|63-39W

23:00

SLYA 242300Z 00000KT 8000 FEW025CB 28/19 Q1012 A2990 HR58 CB N FU=

SLBJ

Bermejo

22-46S|64-18W

21:00

SLBJ 242100Z 18004KT 9999 SCT015 BKN200 32/22 Q1006 A2971 HR55 FU=